Notice: A non well formed numeric value encountered in /storage/content/70/1007070/meteopatras.eu/public_html/weather/scriptsWD/tagsWD.php on line 283 Notice: A non well formed numeric value encountered in /storage/content/70/1007070/meteopatras.eu/public_html/weather/scriptsWD/tagsWD.php on line 284



Ευχαριστούμε που συμβάλλετε στη διατήρηση της σελίδας μας.

Thank you for your donations, it really helps to maintain the page.


Στατιστικά Καιρού & Άλλα..









Δείκτης Πυρκαγιάς (FWI)

Καστελόκαμπος Ρίον more information Kastelokampos Rion


Κάμερα Ρομανού more information Romanos Cam


Ραντάρ Κεραυνών more information blitzortung!


Ραντάρ Βροχής more information rain snow radar


Επισκεφθείτε άλλες ιστοσελίδες καιρού μας:

Meteopatras.Eu in
Euweather NetworkMeteopatras.Eu in Euweather Network

Weather CloudWeather Cloud

PWS WeatherPWS Weather

Awekas NetWeather data from station Patra-Ketx

WunderGroundWeather data from station Patra-Ketx




Ιδιοκτησία και Επίβλεψη : Μουλάς Αντρέας

 Πάτρα, Ελλάδα - Γ.Πλάτος : 38°14'21" Β - Γ.Μήκος : 21°45'5" Α - Υψόμετρο : 56μ

Κοντινές Αναφορές METAR

Warning: A non-numeric value encountered in /storage/content/70/1007070/meteopatras.eu/public_html/weather/metar/metarDisplay.php on line 166 Warning: A non-numeric value encountered in /storage/content/70/1007070/meteopatras.eu/public_html/weather/metar/metarDisplay.php on line 166
   
LGRX - Araxos
Ενημερώθηκε: 19-10-2019 01:50
Αίθριος  
Αίθριος  
   Άνεμος: Άπνοια
Άνεμος: Άπνοια
Θερμοκρασία: 15°C
Σημείο Δρόσου: 15°C
Υγρασία: 100%
Βαρόμετρο: 1018 hPa
Ορατότητα: More than 10 km
Λεπτομέρειες Σύννεφου: Αίθριος
LGRX 182250Z 00000KT CAVOK 15/15 Q1018
LGAD - Andravida
Ενημερώθηκε: 19-10-2019 01:50
Αίθριος  
Αίθριος  
   Άνεμος: Άπνοια
Άνεμος: Άπνοια
Θερμοκρασία: 17°C
Σημείο Δρόσου: 17°C
Υγρασία: 100%
Βαρόμετρο: 1018 hPa
Ορατότητα: More than 10 km
Λεπτομέρειες Σύννεφου: Αίθριος
LGAD 182250Z 00000KT CAVOK 17/17 Q1018
LGZA - Zakinthos
Ενημερώθηκε: 18-10-2019 20:50
ΜΗ τρέχουσες
Κυρίως Αίθριος  
Κυρίως Αίθριος  
   Άνεμος: Άπνοια
Άνεμος: Άπνοια
Θερμοκρασία: 20°C
Σημείο Δρόσου: 18°C
Υγρασία: 88%
Βαρόμετρο: 1017 hPa
Σύννεφα: Κυρίως Αίθριος
Ορατότητα: More than 10 km
Λεπτομέρειες Σύννεφου: Κυρίως Αίθριος 2000 ft
LGZA 181750Z 00000KT 9999 FEW020 20/18 Q1017
LGKF - Kefallinia
Ενημερώθηκε: 18-10-2019 22:50
ΜΗ τρέχουσες
Κυρίως Αίθριος  
Κυρίως Αίθριος  
   Άνεμος: ΒΒΔ 7.4 km/h
Άνεμος: ΒΒΔ 7.4 km/h
Θερμοκρασία: 20°C
Σημείο Δρόσου: 18°C
Υγρασία: 88%
Βαρόμετρο: 1018 hPa
Σύννεφα: Κυρίως Αίθριος
Ορατότητα: More than 10 km
Λεπτομέρειες Σύννεφου: Κυρίως Αίθριος 1600 ft
LGKF 181950Z 34004KT 9999 FEW016 20/18 Q1018
LGPZ - Preveza
Ενημερώθηκε: 19-10-2019 01:50
Κυρίως Αίθριος  
Κυρίως Αίθριος  
   Άνεμος: Άπνοια
Άνεμος: Άπνοια
Θερμοκρασία: 18°C
Σημείο Δρόσου: 17°C
Υγρασία: 94%
Βαρόμετρο: 1018 hPa
Σύννεφα: Κυρίως Αίθριος
Ορατότητα: More than 10 km
Λεπτομέρειες Σύννεφου: Κυρίως Αίθριος 1800 ft
LGPZ 182250Z 00000KT 9999 FEW018 18/17 Q1018
LGKL - Kalamata
Ενημερώθηκε: 19-10-2019 01:50
  
  
   Άνεμος: ΒΔ 7.4 km/h
Άνεμος: ΒΔ 7.4 km/h
Θερμοκρασία: 16°C
Σημείο Δρόσου: 14°C
Υγρασία: 88%
Βαρόμετρο: 1017 hPa
LGKL 182250Z AUTO 32004KT 300V360 //// // ////// 16/14 Q1017 RE//
LGKR - Kerkyra
Ενημερώθηκε: 19-10-2019 01:50
Κυρίως Αίθριος  
Κυρίως Αίθριος  
   Άνεμος: ποικίλλει 3.7 km/h
Άνεμος: ποικίλλει 3.7 km/h
Θερμοκρασία: 17°C
Σημείο Δρόσου: 14°C
Υγρασία: 83%
Βαρόμετρο: 1018 hPa
Σύννεφα: Κυρίως Αίθριος
Ορατότητα: More than 10 km
Λεπτομέρειες Σύννεφου: Κυρίως Αίθριος 1800 ft
LGKR 182250Z VRB02KT 9999 FEW018 17/14 Q1018 NOSIG
LGIO - Iwannina
Ενημερώθηκε: 19-10-2019 01:50
  
  
   Άνεμος: Άπνοια
Άνεμος: Άπνοια
Θερμοκρασία: 12°C
Σημείο Δρόσου: 12°C
Υγρασία: 100%
Βαρόμετρο: 1019 hPa
LGIO 182250Z AUTO 00000KT //// // ////// 12/12 Q1019 RE//
LGPZ - Leykada
Ενημερώθηκε: 19-10-2019 01:50
Κυρίως Αίθριος  
Κυρίως Αίθριος  
   Άνεμος: Άπνοια
Άνεμος: Άπνοια
Θερμοκρασία: 18°C
Σημείο Δρόσου: 17°C
Υγρασία: 94%
Βαρόμετρο: 1018 hPa
Σύννεφα: Κυρίως Αίθριος
Ορατότητα: More than 10 km
Λεπτομέρειες Σύννεφου: Κυρίως Αίθριος 1800 ft
LGPZ 182250Z 00000KT 9999 FEW018 18/17 Q1018
LGEL - Elefsina
Ενημερώθηκε: 19-10-2019 01:50
Κυρίως Συννεφιά  
Κυρίως Συννεφιά  
   Άνεμος: Άπνοια
Άνεμος: Άπνοια
Θερμοκρασία: 18°C
Σημείο Δρόσου: 16°C
Υγρασία: 88%
Βαρόμετρο: 1016 hPa
Σύννεφα: Κυρίως Συννεφιά
Ορατότητα: 9 km
Λεπτομέρειες Σύννεφου: Κυρίως Αίθριος 1200 ft,
Κυρίως Συννεφιά 2500 ft
LGEL 182250Z 00000KT 9000 FEW012 BKN025 18/16 Q1016
LGKC - Kythira
Ενημερώθηκε: 18-10-2019 18:50
ΜΗ τρέχουσες
Μερικώς Νεφελώδης  
Μερικώς Νεφελώδης  
   Άνεμος: Βοράς 11.1 km/h
Άνεμος: Βοράς 11.1 km/h
Θερμοκρασία: 21°C
Σημείο Δρόσου: 19°C
Υγρασία: 88%
Βαρόμετρο: 1018 hPa
Σύννεφα: Μερικώς Νεφελώδης
Ορατότητα: More than 10 km
Λεπτομέρειες Σύννεφου: Κυρίως Αίθριος 1500 ft,
Μερικώς Νεφελώδης 3500 ft
LGKC 181550Z 36006KT 9999 FEW015 SCT035 21/19 Q1018
LGIR - Hraklio
Ενημερώθηκε: 19-10-2019 01:50
Μερικώς Νεφελώδης  
Μερικώς Νεφελώδης  
   Άνεμος: ΝΝΑ 13 km/h
Άνεμος: ΝΝΑ 13 km/h
Θερμοκρασία: 18°C
Σημείο Δρόσου: 15°C
Υγρασία: 83%
Βαρόμετρο: 1017 hPa
Σύννεφα: Μερικώς Νεφελώδης
Ορατότητα: More than 10 km
Λεπτομέρειες Σύννεφου: Κυρίως Αίθριος 2500 ft,
Μερικώς Νεφελώδης 9000 ft
LGIR 182250Z 16007KT 9999 FEW025 SCT090 18/15 Q1017 NOSIG

Script developed by  Saratoga-weather.org Προσαρμοσμένος για το πρότυπο του  Weerstation Leuven

Μπορείτε να βρείτε πληροφορίες καιρού μας και σε:

European Weather Network

WeatherCloud

Weather Underground

Δύκτιο Σταθμών Ελλάδας

AWEKAS

HAMweather, WeatherForYou, PWS Weather

MeteoPatras.Eu